Time;durP1;ratioP1;P1;durP2;ratioP2;P2;SDS_P1;SDS_P2;PMS_P1;PMS_P2;Temp;Humidity;BMP_temperature;BMP_pressure;BME280_temperature;BME280_humidity;BME280_pressure;Samples;Min_cycle;Max_cycle;Signal;HPM_P1;HPM_P2
2021/10/26 00:00:13;;;;;;;7.93;5.57;;;1.40;99.90;0.50;97365.00;;;;5074986;28;20436;-74
2021/10/26 00:03:02;;;;;;;7.27;5.67;;;1.40;99.90;0.60;97355.00;;;;5096558;28;20417;-74
2021/10/26 00:05:51;;;;;;;7.43;6.33;;;1.40;99.90;0.60;97341.00;;;;5084195;28;20440;-74
2021/10/26 00:08:39;;;;;;;9.57;5.77;;;1.40;99.90;0.40;97335.00;;;;5067259;28;20426;-74
2021/10/26 00:11:29;;;;;;;7.60;5.03;;;1.30;99.90;0.40;97338.00;;;;5074287;28;20453;-75
2021/10/26 00:14:19;;;;;;;6.33;5.83;;;1.30;99.90;0.20;97334.00;;;;5093982;28;20425;-75
2021/10/26 00:17:08;;;;;;;5.93;5.23;;;1.20;99.90;0.00;97322.00;;;;5090166;28;21016;-74
2021/10/26 00:19:57;;;;;;;8.13;5.73;;;1.10;99.90;0.10;97328.00;;;;5075889;28;21011;-74
2021/10/26 00:22:46;;;;;;;5.93;5.30;;;1.10;99.90;0.30;97315.00;;;;5065421;28;20458;-74
2021/10/26 00:25:36;;;;;;;11.77;4.90;;;1.00;99.90;0.30;97318.00;;;;5082511;28;21114;-74
2021/10/26 00:28:24;;;;;;;7.23;5.57;;;1.00;99.90;0.30;97324.00;;;;5078744;28;20976;-74
2021/10/26 00:31:15;;;;;;;6.70;6.07;;;1.10;99.90;0.10;97306.00;;;;5077537;28;20981;-75
2021/10/26 00:34:04;;;;;;;6.30;5.37;;;1.00;99.90;-0.10;97310.00;;;;5070751;28;20462;-74
2021/10/26 00:36:54;;;;;;;6.93;5.50;;;0.90;99.90;-0.20;97299.00;;;;5070896;28;21281;-74
2021/10/26 00:39:43;;;;;;;7.90;5.70;;;0.90;99.90;-0.10;97295.00;;;;5076249;28;20465;-74
2021/10/26 00:42:33;;;;;;;6.53;5.60;;;0.90;99.90;0.00;97290.00;;;;5077599;28;20830;-74
2021/10/26 00:45:22;;;;;;;6.30;5.70;;;0.90;99.90;0.20;97291.00;;;;5069869;28;20422;-74
2021/10/26 00:48:12;;;;;;;6.63;5.43;;;0.90;99.90;0.30;97287.00;;;;5071351;28;20427;-75
2021/10/26 00:51:01;;;;;;;10.20;5.87;;;0.90;99.90;0.40;97283.00;;;;5072908;28;20976;-74
2021/10/26 00:53:51;;;;;;;8.10;6.33;;;1.00;99.90;0.40;97274.00;;;;5075271;28;20429;-74
2021/10/26 00:56:40;;;;;;;8.03;6.03;;;1.00;99.90;0.20;97267.00;;;;5071233;28;20487;-75
2021/10/26 00:59:29;;;;;;;7.97;6.73;;;1.00;99.90;0.20;97267.00;;;;5071056;28;20828;-75
2021/10/26 01:02:18;;;;;;;8.17;6.07;;;1.00;99.90;0.20;97261.00;;;;5077826;28;21235;-74
2021/10/26 01:05:09;;;;;;;11.73;6.07;;;1.00;99.90;0.10;97257.00;;;;5063901;28;20433;-75
2021/10/26 01:07:59;;;;;;;7.90;7.10;;;1.00;99.90;-0.10;97259.00;;;;5079258;28;21257;-76
2021/10/26 01:10:51;;;;;;;8.80;6.50;;;0.90;99.90;-0.30;97241.00;;;;5065650;28;20451;-75
2021/10/26 01:13:41;;;;;;;17.13;8.93;;;0.80;99.90;-0.30;97233.00;;;;5091912;28;20429;-75
2021/10/26 01:16:31;;;;;;;16.17;8.83;;;0.80;99.90;-0.40;97246.00;;;;5094545;28;20884;-74
2021/10/26 01:19:20;;;;;;;21.27;11.23;;;0.70;99.90;-0.50;97240.00;;;;5078914;28;20531;-74
2021/10/26 01:22:10;;;;;;;18.23;9.60;;;0.60;99.90;-0.20;97231.00;;;;5078343;28;21205;-74
2021/10/26 01:24:59;;;;;;;12.20;8.73;;;0.60;99.90;-0.30;97239.00;;;;5073836;28;20429;-76
2021/10/26 01:27:53;;;;;;;18.07;10.10;;;0.60;99.90;-0.40;97239.00;;;;5065030;28;20429;-75
2021/10/26 01:30:42;;;;;;;16.53;8.03;;;0.40;99.90;-0.10;97233.00;;;;5078317;28;20442;-75
2021/10/26 01:33:31;;;;;;;17.63;9.63;;;0.70;99.90;-0.10;97232.00;;;;5064988;28;20426;-76
2021/10/26 01:36:22;;;;;;;13.20;8.67;;;0.70;99.90;-0.20;97230.00;;;;5074652;28;20433;-75
2021/10/26 01:39:12;;;;;;;24.73;14.37;;;0.70;99.90;-0.10;97237.00;;;;5064157;28;20457;-75
2021/10/26 01:42:03;;;;;;;22.80;11.43;;;0.70;99.90;-0.20;97237.00;;;;5079115;28;20446;-75
2021/10/26 01:44:51;;;;;;;12.40;9.53;;;0.70;99.90;-0.10;97237.00;;;;5064516;28;20419;-75
2021/10/26 01:47:41;;;;;;;10.47;7.17;;;0.70;99.90;-0.10;97229.00;;;;5073569;28;20965;-75
2021/10/26 01:50:30;;;;;;;9.23;7.70;;;0.70;99.90;-0.20;97226.00;;;;5072192;28;20448;-75
2021/10/26 01:53:18;;;;;;;7.53;6.77;;;0.70;99.90;-0.50;97230.00;;;;5071954;28;20438;-75
2021/10/26 01:56:09;;;;;;;11.17;7.23;;;0.60;99.90;-0.40;97219.00;;;;5070948;28;20426;-75
2021/10/26 01:58:58;;;;;;;10.43;6.93;;;0.60;99.90;-0.30;97226.00;;;;5075172;28;20422;-74
2021/10/26 02:01:47;;;;;;;10.07;7.10;;;0.60;99.90;-0.20;97216.00;;;;5073003;28;20444;-74
2021/10/26 02:04:36;;;;;;;6.77;6.10;;;0.60;99.90;-0.20;97218.00;;;;5067081;28;20515;-74
2021/10/26 02:07:24;;;;;;;8.67;6.30;;;0.60;99.90;-0.60;97213.00;;;;5077776;28;20437;-75
2021/10/26 02:10:15;;;;;;;10.70;6.90;;;0.60;99.90;-0.60;97215.00;;;;5066760;28;20418;-74
2021/10/26 02:13:06;;;;;;;9.87;6.43;;;0.50;99.90;-0.70;97216.00;;;;5068752;28;20443;-74
2021/10/26 02:15:55;;;;;;;8.47;7.43;;;0.40;99.90;-0.60;97213.00;;;;5065582;28;20971;-75
2021/10/26 02:18:43;;;;;;;9.17;6.73;;;0.40;99.90;-0.50;97218.00;;;;5079284;28;20482;-75
2021/10/26 02:21:32;;;;;;;9.70;7.83;;;0.40;99.90;-0.50;97208.00;;;;5065463;28;20828;-75
2021/10/26 02:24:21;;;;;;;10.77;8.07;;;0.40;99.90;-0.60;97207.00;;;;5073202;28;20429;-74
2021/10/26 02:27:10;;;;;;;7.87;7.13;;;0.40;99.90;-0.60;97211.00;;;;5075532;28;20429;-74
2021/10/26 02:30:00;;;;;;;8.37;7.23;;;0.30;99.90;-0.90;97201.00;;;;5076151;28;20444;-75
2021/10/26 02:32:49;;;;;;;9.33;7.37;;;0.30;99.90;-0.70;97218.00;;;;5067920;28;20952;-75
2021/10/26 02:35:38;;;;;;;8.10;7.03;;;0.20;99.90;-0.70;97205.00;;;;5087878;28;20432;-74
2021/10/26 02:38:27;;;;;;;9.40;7.77;;;0.20;99.90;-0.60;97221.00;;;;5072781;28;20440;-74
2021/10/26 02:41:16;;;;;;;8.60;7.03;;;0.20;99.90;-0.50;97212.00;;;;5078726;28;20469;-74
2021/10/26 02:44:06;;;;;;;8.67;7.30;;;0.30;99.90;-0.40;97211.00;;;;5079741;28;21217;-74
2021/10/26 02:46:56;;;;;;;10.23;7.60;;;0.30;99.90;-0.30;97218.00;;;;5072270;28;21018;-75
2021/10/26 02:49:45;;;;;;;12.90;8.50;;;0.40;99.90;-0.10;97218.00;;;;5085844;28;20429;-74
2021/10/26 02:52:36;;;;;;;11.63;7.97;;;0.50;99.90;-0.10;97216.00;;;;5068060;28;20454;-74
2021/10/26 02:55:25;;;;;;;12.53;7.23;;;0.50;99.90;-0.20;97213.00;;;;5067856;28;20952;-74
2021/10/26 02:58:14;;;;;;;8.70;6.63;;;0.60;99.90;-0.40;97219.00;;;;5071564;28;21227;-74
2021/10/26 03:01:03;;;;;;;8.00;7.20;;;0.50;99.90;-0.40;97208.00;;;;5072337;28;20470;-75
2021/10/26 03:03:53;;;;;;;8.73;7.20;;;0.50;99.90;-0.60;97212.00;;;;5078651;28;20417;-76
2021/10/26 03:06:43;;;;;;;8.93;7.37;;;0.40;99.90;-0.60;97213.00;;;;5080552;28;20433;-75
2021/10/26 03:09:32;;;;;;;8.93;6.97;;;0.40;99.90;-0.70;97200.00;;;;5071678;28;20414;-75
2021/10/26 03:12:21;;;;;;;9.00;6.73;;;0.30;99.90;-0.70;97222.00;;;;5073826;28;20449;-75
2021/10/26 03:15:12;;;;;;;7.27;6.57;;;0.30;99.90;-0.70;97213.00;;;;5076882;28;20428;-75
2021/10/26 03:18:01;;;;;;;6.83;5.63;;;0.30;99.90;-0.60;97208.00;;;;5080366;28;20422;-76
2021/10/26 03:20:52;;;;;;;9.83;6.97;;;0.30;99.90;-0.80;97206.00;;;;5079752;28;20996;-75
2021/10/26 03:23:41;;;;;;;8.90;7.67;;;0.30;99.90;-0.90;97199.00;;;;5066836;28;20423;-74
2021/10/26 03:26:30;;;;;;;6.33;4.20;;;0.20;99.90;-1.10;97202.00;;;;5077122;28;20963;-75
2021/10/26 03:29:19;;;;;;;15.90;8.77;;;0.00;99.90;-1.00;97203.00;;;;5086982;28;20438;-75
2021/10/26 03:32:08;;;;;;;16.80;7.60;;;0.00;99.90;-0.80;97205.00;;;;5071342;28;20450;-74
2021/10/26 03:34:57;;;;;;;6.90;6.23;;;0.00;99.90;-0.70;97209.00;;;;5079790;28;20425;-75
2021/10/26 03:37:47;;;;;;;9.37;7.43;;;0.00;99.90;-0.70;97207.00;;;;5077647;28;20793;-74
2021/10/26 03:40:37;;;;;;;9.77;6.67;;;0.10;99.90;-0.90;97196.00;;;;5073104;28;20473;-74
2021/10/26 03:43:26;;;;;;;7.50;6.30;;;0.10;99.90;-1.20;97199.00;;;;5071095;28;20433;-73
2021/10/26 03:46:15;;;;;;;8.87;7.97;;;0.10;99.90;-0.90;97224.00;;;;5079178;28;20862;-74
2021/10/26 03:49:04;;;;;;;12.20;7.70;;;0.00;99.90;-0.70;97217.00;;;;5076127;28;20486;-75
2021/10/26 03:51:53;;;;;;;8.30;7.30;;;0.00;99.90;-0.50;97230.00;;;;5068539;28;20454;-74
2021/10/26 03:54:43;;;;;;;10.53;7.47;;;0.10;99.90;-0.40;97229.00;;;;5079589;28;20433;-74
2021/10/26 03:57:32;;;;;;;12.87;9.10;;;0.20;99.90;-0.40;97230.00;;;;5066271;28;20434;-74
2021/10/26 04:00:21;;;;;;;12.03;7.20;;;0.30;99.90;-0.60;97227.00;;;;5075034;28;20469;-75
2021/10/26 04:03:10;;;;;;;10.13;6.63;;;0.30;99.90;-0.90;97228.00;;;;5067565;28;20438;-73
2021/10/26 04:06:02;;;;;;;10.07;8.53;;;0.20;99.90;-0.90;97224.00;;;;5067104;28;20438;-74
2021/10/26 04:08:55;;;;;;;4.70;4.23;;;0.20;99.90;-0.90;97231.00;;;;5079279;28;21116;-74
2021/10/26 04:11:53;;;;;;;13.50;6.90;;;0.10;99.90;-0.60;97238.00;;;;5074948;28;20434;-75
2021/10/26 04:14:42;;;;;;;14.67;8.40;;;0.10;99.90;-0.50;97252.00;;;;5067681;28;20435;-75
2021/10/26 04:17:31;;;;;;;11.70;8.03;;;0.30;99.90;-0.30;97233.00;;;;5080707;28;20434;-74
2021/10/26 04:20:19;;;;;;;10.33;7.77;;;0.30;99.90;-0.50;97234.00;;;;5066616;28;21155;-75
2021/10/26 04:23:09;;;;;;;8.43;7.43;;;0.30;99.90;-0.60;97227.00;;;;5076693;28;20433;-75
2021/10/26 04:25:58;;;;;;;8.90;6.70;;;0.30;99.90;-0.50;97232.00;;;;5073557;28;20430;-74
2021/10/26 04:28:48;;;;;;;8.87;7.53;;;0.30;99.90;-0.60;97235.00;;;;5071061;28;20441;-75
2021/10/26 04:31:37;;;;;;;7.10;6.37;;;0.30;99.90;-0.80;97224.00;;;;5079211;28;20456;-74
2021/10/26 04:34:26;;;;;;;7.10;5.67;;;0.30;99.90;-1.00;97230.00;;;;5077086;28;20471;-75
2021/10/26 04:37:14;;;;;;;8.60;7.30;;;0.20;99.90;-0.70;97235.00;;;;5067975;28;20441;-76
2021/10/26 04:40:05;;;;;;;11.90;8.00;;;0.10;99.90;-1.00;97227.00;;;;5069022;28;20419;-74
2021/10/26 04:42:54;;;;;;;12.53;7.70;;;0.10;99.90;-1.00;97236.00;;;;5067598;28;20426;-75
2021/10/26 04:45:46;;;;;;;12.63;8.67;;;0.00;99.90;-0.70;97241.00;;;;5073720;28;20414;-75
2021/10/26 04:48:37;;;;;;;10.80;8.47;;;0.00;99.90;-0.90;97244.00;;;;5072377;28;20471;-76
2021/10/26 04:51:26;;;;;;;12.23;8.07;;;0.00;99.90;-0.80;97253.00;;;;5071334;28;20439;-74
2021/10/26 04:54:15;;;;;;;8.60;7.63;;;0.00;99.90;-1.00;97247.00;;;;5078164;28;20486;-77
2021/10/26 04:57:04;;;;;;;11.40;7.97;;;0.10;99.90;-1.20;97240.00;;;;5075551;28;20414;-75
2021/10/26 04:59:54;;;;;;;14.70;7.87;;;0.00;99.90;-1.00;97253.00;;;;5067339;28;20430;-75
2021/10/26 05:02:44;;;;;;;12.30;10.10;;;0.00;99.90;-0.90;97249.00;;;;5079325;28;20453;-74
2021/10/26 05:05:33;;;;;;;11.53;8.47;;;-0.10;99.90;-1.00;97252.00;;;;5066749;28;20469;-74
2021/10/26 05:08:22;;;;;;;11.23;8.13;;;0.00;99.90;-1.00;97255.00;;;;5072848;28;20414;-73
2021/10/26 05:11:11;;;;;;;12.17;8.23;;;0.00;99.90;-0.90;97262.00;;;;5068138;28;20828;-74
2021/10/26 05:13:59;;;;;;;16.90;10.17;;;-0.10;99.90;-0.80;97271.00;;;;5071268;28;21159;-74
2021/10/26 05:16:48;;;;;;;15.60;8.30;;;0.00;99.90;-0.70;97274.00;;;;5072195;28;20419;-73
2021/10/26 05:19:39;;;;;;;10.03;8.17;;;0.10;99.90;-0.40;97273.00;;;;5064660;28;20636;-75
2021/10/26 05:22:29;;;;;;;11.97;8.00;;;0.20;99.90;-0.30;97269.00;;;;5069067;28;20484;-74
2021/10/26 05:25:19;;;;;;;9.37;7.87;;;0.30;99.90;-0.40;97259.00;;;;5071097;28;20430;-75
2021/10/26 05:28:09;;;;;;;13.60;9.63;;;0.40;99.90;-0.30;97274.00;;;;5075257;28;20442;-74
2021/10/26 05:30:58;;;;;;;7.23;6.53;;;0.50;99.90;-0.70;97269.00;;;;5064868;28;20458;-74
2021/10/26 05:33:47;;;;;;;9.20;7.57;;;0.40;99.90;-0.90;97273.00;;;;5068402;28;20813;-75
2021/10/26 05:36:38;;;;;;;7.87;6.63;;;0.30;99.90;-0.70;97273.00;;;;5071405;28;20438;-75
2021/10/26 05:39:26;;;;;;;14.10;8.00;;;0.30;99.90;-0.40;97274.00;;;;5070600;28;20795;-75
2021/10/26 05:42:15;;;;;;;8.63;7.33;;;0.30;99.90;-0.20;97280.00;;;;5065456;28;20474;-75
2021/10/26 05:45:06;;;;;;;9.13;7.17;;;0.40;99.90;-0.10;97283.00;;;;5074258;28;20496;-74
2021/10/26 05:47:55;;;;;;;8.97;8.07;;;0.50;99.90;0.00;97290.00;;;;5083249;28;20426;-74
2021/10/26 05:50:44;;;;;;;11.67;9.77;;;0.60;99.90;0.10;97288.00;;;;5065115;28;20427;-74
2021/10/26 05:53:34;;;;;;;8.80;7.47;;;0.70;99.90;0.10;97297.00;;;;5067378;28;20429;-75
2021/10/26 05:56:24;;;;;;;10.40;8.20;;;0.70;99.90;0.20;97296.00;;;;5065506;28;20422;-74
2021/10/26 05:59:12;;;;;;;12.03;9.10;;;0.80;99.90;0.10;97300.00;;;;5064841;28;20418;-75
2021/10/26 06:02:01;;;;;;;10.30;7.17;;;0.40;99.90;-0.10;97298.00;;;;5072414;28;20463;-73
2021/10/26 06:04:52;;;;;;;10.50;7.70;;;0.80;99.90;-0.10;97317.00;;;;5063661;28;20522;-73
2021/10/26 06:07:41;;;;;;;10.33;6.97;;;0.80;99.90;-0.30;97302.00;;;;5071363;28;20421;-73
2021/10/26 06:10:33;;;;;;;9.30;8.30;;;0.70;99.90;-0.30;97297.00;;;;5079060;28;20944;-74
2021/10/26 06:13:23;;;;;;;9.00;7.30;;;0.80;99.90;0.00;97310.00;;;;5063670;28;20972;-74
2021/10/26 06:16:12;;;;;;;11.07;8.47;;;0.70;99.90;0.40;97312.00;;;;5064133;28;20419;-74
2021/10/26 06:19:01;;;;;;;10.27;7.87;;;0.90;99.90;0.50;97321.00;;;;5064695;28;20438;-73
2021/10/26 06:21:50;;;;;;;15.40;7.13;;;1.00;99.90;0.70;97319.00;;;;5069732;28;20470;-73
2021/10/26 06:24:45;;;;;;;8.70;7.37;;;1.20;99.90;0.30;97331.00;;;;5071996;28;20806;-73
2021/10/26 06:27:35;;;;;;;10.00;8.93;;;1.30;99.90;0.30;97326.00;;;;5069943;28;20454;-72
2021/10/26 06:30:24;;;;;;;9.90;8.90;;;1.30;99.90;0.40;97338.00;;;;5063532;28;20433;-72
2021/10/26 06:33:13;;;;;;;8.67;7.43;;;1.30;99.90;0.60;97332.00;;;;5077854;28;20930;-73
2021/10/26 06:36:02;;;;;;;12.47;10.60;;;1.30;99.90;0.70;97340.00;;;;5083494;28;20437;-73
2021/10/26 06:38:51;;;;;;;13.17;9.43;;;1.40;99.90;0.80;97338.00;;;;5065025;28;20437;-74
2021/10/26 06:41:40;;;;;;;9.80;6.10;;;1.50;99.90;0.80;97338.00;;;;5077803;28;20480;-74
2021/10/26 06:44:30;;;;;;;11.30;7.37;;;1.60;99.90;0.70;97352.00;;;;5072371;28;20437;-74
2021/10/26 06:47:19;;;;;;;7.77;6.60;;;1.60;99.90;0.60;97343.00;;;;5072952;28;20425;-73
2021/10/26 06:50:10;;;;;;;12.27;6.70;;;1.60;99.90;1.00;97354.00;;;;5080127;28;20422;-73
2021/10/26 06:52:59;;;;;;;17.03;8.10;;;1.60;99.90;1.00;97357.00;;;;5064700;28;20430;-74
2021/10/26 06:55:48;;;;;;;9.90;7.23;;;1.70;99.90;1.10;97363.00;;;;5072324;28;20941;-72
2021/10/26 06:58:36;;;;;;;9.17;7.30;;;1.80;99.90;1.20;97366.00;;;;5071731;28;20440;-74
2021/10/26 07:01:27;;;;;;;11.10;7.97;;;1.90;99.90;1.30;97376.00;;;;5070214;28;20528;-74
2021/10/26 07:04:16;;;;;;;8.17;7.30;;;2.00;99.90;1.30;97368.00;;;;5081442;28;20481;-73
2021/10/26 07:07:05;;;;;;;12.60;7.23;;;2.00;99.90;1.40;97369.00;;;;5069363;28;20483;-73
2021/10/26 07:09:54;;;;;;;11.07;7.70;;;2.00;99.90;1.60;97371.00;;;;5070105;28;20426;-74
2021/10/26 07:12:43;;;;;;;10.30;7.47;;;2.20;99.90;1.90;97371.00;;;;5079354;28;20449;-74
2021/10/26 07:15:32;;;;;;;12.00;8.07;;;2.30;99.90;2.10;97387.00;;;;5081474;28;20422;-71
2021/10/26 07:18:23;;;;;;;12.30;7.40;;;2.50;99.90;2.50;97389.00;;;;5067130;28;20813;-74
2021/10/26 07:21:13;;;;;;;10.90;7.93;;;3.00;99.90;2.70;97387.00;;;;5066356;28;20837;-75
2021/10/26 07:24:02;;;;;;;13.57;9.40;;;2.80;99.90;2.90;97385.00;;;;5079167;28;20450;-74
2021/10/26 07:26:51;;;;;;;13.27;8.57;;;3.00;99.90;2.90;97394.00;;;;5068202;28;20434;-74
2021/10/26 07:29:42;;;;;;;9.53;7.17;;;3.20;99.90;3.00;97393.00;;;;5076937;28;20448;-74
2021/10/26 07:32:30;;;;;;;8.60;6.73;;;3.30;99.90;3.10;97392.00;;;;5068256;28;20463;-73
2021/10/26 07:35:21;;;;;;;14.10;8.50;;;3.50;99.90;3.10;97399.00;;;;5082568;28;20417;-74
2021/10/26 07:38:14;;;;;;;16.20;9.23;;;3.50;99.90;3.30;97398.00;;;;5084383;28;21141;-74
2021/10/26 07:41:03;;;;;;;11.47;7.97;;;3.60;99.90;3.40;97394.00;;;;5078191;28;20434;-74
2021/10/26 07:43:52;;;;;;;10.60;7.47;;;3.80;99.90;3.40;97404.00;;;;5066049;28;20469;-73
2021/10/26 07:46:41;;;;;;;10.00;7.00;;;3.80;99.90;3.40;97409.00;;;;5079574;28;20439;-74
2021/10/26 07:49:31;;;;;;;11.63;7.60;;;3.90;99.90;3.40;97401.00;;;;5080298;28;20436;-74
2021/10/26 07:52:24;;;;;;;11.90;7.93;;;3.90;99.90;3.50;97407.00;;;;5078949;28;20452;-74
2021/10/26 07:55:13;;;;;;;8.73;6.97;;;4.00;99.90;3.70;97409.00;;;;5081402;28;20434;-75
2021/10/26 07:58:04;;;;;;;9.50;6.83;;;4.10;99.90;3.80;97410.00;;;;5082358;28;20739;-75
2021/10/26 08:00:53;;;;;;;13.03;8.13;;;4.20;99.90;4.00;97414.00;;;;5080982;28;20437;-75
2021/10/26 08:03:42;;;;;;;10.30;7.50;;;4.30;99.90;4.10;97410.00;;;;5084991;28;20871;-75
2021/10/26 08:06:31;;;;;;;13.60;8.63;;;4.40;99.90;4.40;97415.00;;;;5089472;28;20444;-74
2021/10/26 08:09:22;;;;;;;9.53;8.53;;;4.50;99.90;4.60;97419.00;;;;5063719;28;20438;-74
2021/10/26 08:12:11;;;;;;;12.23;9.03;;;4.70;99.90;4.80;97408.00;;;;5090592;28;20444;-74
2021/10/26 08:15:00;;;;;;;11.87;7.47;;;4.80;99.90;5.00;97409.00;;;;5075942;28;20199;-75
2021/10/26 08:17:48;;;;;;;9.93;7.77;;;5.00;99.90;5.10;97415.00;;;;5068330;28;20204;-73
2021/10/26 08:20:37;;;;;;;10.80;6.97;;;5.20;99.90;5.50;97412.00;;;;5067011;28;20204;-74
2021/10/26 08:23:27;;;;;;;9.57;6.87;;;5.40;99.90;5.60;97405.00;;;;5076452;28;20231;-74
2021/10/26 08:26:20;;;;;;;10.47;7.77;;;5.60;99.90;5.70;97424.00;;;;5068627;28;20207;-74
2021/10/26 08:29:14;;;;;;;8.10;6.90;;;5.80;99.90;5.80;97420.00;;;;5079790;28;20208;-74
2021/10/26 08:35:27;;;;;;;7.03;5.40;;;6.10;99.90;6.00;97427.00;;;;5070000;28;20614;-74
2021/10/26 08:38:17;;;;;;;8.47;6.23;;;6.20;99.90;5.80;97419.00;;;;5066100;28;20196;-74
2021/10/26 08:41:08;;;;;;;7.70;6.53;;;6.20;99.90;5.90;97423.00;;;;5074637;28;20227;-74
2021/10/26 08:43:59;;;;;;;10.77;7.30;;;6.20;99.90;6.00;97421.00;;;;5066840;28;20342;-74
2021/10/26 08:46:48;;;;;;;10.13;7.23;;;6.30;99.90;6.10;97420.00;;;;5068628;28;20230;-74
2021/10/26 08:49:38;;;;;;;9.80;6.97;;;6.30;99.90;6.20;97423.00;;;;5073865;28;20199;-74
2021/10/26 08:52:28;;;;;;;12.47;6.83;;;6.40;99.90;6.30;97421.00;;;;5093932;28;20211;-73
2021/10/26 08:55:18;;;;;;;10.63;6.00;;;6.50;99.90;6.40;97419.00;;;;5076761;28;20211;-72
2021/10/26 08:58:08;;;;;;;9.30;6.50;;;6.60;99.90;6.60;97424.00;;;;5094885;28;20594;-74
2021/10/26 09:01:00;;;;;;;12.33;6.33;;;6.70;99.90;6.70;97423.00;;;;5091482;28;20226;-73
2021/10/26 09:03:50;;;;;;;9.50;6.60;;;6.90;99.90;7.00;97426.00;;;;5092365;28;20235;-74
2021/10/26 09:06:45;;;;;;;10.97;6.57;;;6.90;99.90;7.20;97426.00;;;;5074567;28;20199;-74
2021/10/26 09:09:36;;;;;;;8.30;6.30;;;7.10;99.90;7.30;97432.00;;;;5071677;28;20203;-73
2021/10/26 09:18:42;;;;;;;12.83;6.57;;;7.40;99.90;7.40;97432.00;;;;5078643;28;20210;-73
2021/10/26 09:21:32;;;;;;;5.83;4.93;;;7.50;99.90;7.70;97429.00;;;;5077275;28;20228;-74
2021/10/26 09:24:21;;;;;;;10.90;6.47;;;7.60;99.90;7.70;97436.00;;;;5078069;28;20297;-73
2021/10/26 09:27:20;;;;;;;10.40;6.57;;;7.70;99.90;7.70;97434.00;;;;5079355;28;20199;-74
2021/10/26 09:30:14;;;;;;;7.67;5.47;;;7.80;99.90;7.70;97435.00;;;;5064939;28;20659;-75
2021/10/26 09:33:07;;;;;;;8.33;6.90;;;7.90;99.90;7.70;97447.00;;;;5076213;28;20191;-74
2021/10/26 09:36:26;;;;;;;7.63;6.17;;;7.90;99.90;8.00;97446.00;;;;5076967;28;20200;-74
2021/10/26 09:39:24;;;;;;;6.63;5.10;;;8.00;99.90;7.90;97440.00;;;;5065973;28;20200;-75
2021/10/26 09:42:13;;;;;;;9.20;5.77;;;8.10;99.90;8.30;97443.00;;;;5082612;28;20234;-74
2021/10/26 09:45:03;;;;;;;10.87;5.67;;;8.20;99.90;8.60;97454.00;;;;5068643;28;20208;-75
2021/10/26 09:47:54;;;;;;;8.27;5.80;;;8.40;99.90;8.50;97442.00;;;;5066813;28;20212;-74
2021/10/26 09:50:44;;;;;;;8.30;5.27;;;8.50;99.90;8.90;97440.00;;;;5067968;28;20698;-74
2021/10/26 09:53:35;;;;;;;7.33;5.17;;;8.60;99.90;9.10;97446.00;;;;5066077;28;20207;-74
2021/10/26 09:56:23;;;;;;;6.77;5.20;;;8.80;99.90;9.20;97445.00;;;;5078271;28;20208;-74
2021/10/26 09:59:23;;;;;;;7.43;6.00;;;8.90;99.90;9.30;97444.00;;;;5069316;28;20204;-74
2021/10/26 10:02:21;;;;;;;11.27;5.37;;;9.10;99.90;9.60;97445.00;;;;5065355;28;20223;-74
2021/10/26 10:05:27;;;;;;;9.27;5.70;;;9.20;99.90;9.50;97442.00;;;;5074672;28;20211;-73
2021/10/26 10:08:21;;;;;;;12.00;5.70;;;9.40;99.90;9.30;97423.00;;;;5077233;28;20210;-74
2021/10/26 10:11:17;;;;;;;6.97;5.73;;;9.50;99.90;9.60;97422.00;;;;5070024;28;20220;-74
2021/10/26 10:14:09;;;;;;;8.30;5.23;;;9.50;99.90;9.70;97425.00;;;;5065005;28;20212;-73
2021/10/26 10:16:59;;;;;;;8.03;5.20;;;9.60;99.90;9.60;97421.00;;;;5082195;28;20207;-74
2021/10/26 10:19:50;;;;;;;7.03;4.73;;;9.60;99.90;9.60;97428.00;;;;5077875;28;20212;-73
2021/10/26 10:22:41;;;;;;;11.47;5.43;;;9.60;99.90;9.70;97427.00;;;;5068490;28;20224;-74
2021/10/26 10:25:32;;;;;;;7.33;4.47;;;9.60;99.90;9.50;97427.00;;;;5069979;28;20200;-74
2021/10/26 10:28:25;;;;;;;7.43;4.83;;;9.70;99.90;9.60;97436.00;;;;5073382;28;20208;-74
2021/10/26 10:31:16;;;;;;;7.23;4.57;;;9.70;99.90;9.60;97434.00;;;;5071786;28;20234;-75
2021/10/26 10:34:05;;;;;;;9.83;5.30;;;9.60;99.90;9.70;97431.00;;;;5066791;28;20208;-74
2021/10/26 10:36:55;;;;;;;7.83;4.97;;;9.60;99.90;9.60;97433.00;;;;5078314;28;20203;-74
2021/10/26 10:39:45;;;;;;;6.83;4.53;;;9.80;99.90;9.50;97433.00;;;;5067733;28;20208;-74
2021/10/26 10:42:48;;;;;;;6.60;5.50;;;9.60;99.90;9.30;97436.00;;;;5066287;28;20219;-74
2021/10/26 10:45:44;;;;;;;8.43;5.43;;;9.60;99.90;9.40;97416.00;;;;5067153;28;20199;-74
2021/10/26 10:48:33;;;;;;;5.30;4.70;;;9.50;99.90;9.50;97415.00;;;;5075420;28;20214;-75
2021/10/26 10:51:22;;;;;;;5.43;4.30;;;9.50;99.90;9.50;97419.00;;;;5083313;28;20234;-75
2021/10/26 10:54:44;;;;;;;7.73;5.27;;;9.50;99.90;9.50;97403.00;;;;5067610;28;20203;-74
2021/10/26 10:57:35;;;;;;;7.50;4.57;;;9.60;99.90;9.50;97399.00;;;;5080810;28;20206;-74
2021/10/26 11:00:28;;;;;;;7.30;4.47;;;9.60;99.90;9.60;97398.00;;;;5065162;28;20207;-74
2021/10/26 11:03:32;;;;;;;5.43;4.23;;;9.60;99.90;9.80;97404.00;;;;5081044;28;20312;-74
2021/10/26 11:06:57;;;;;;;6.37;4.53;;;9.60;99.90;9.80;97384.00;;;;5081009;28;20207;-74
2021/10/26 11:09:52;;;;;;;5.53;4.67;;;9.70;99.90;9.90;97380.00;;;;5085628;28;20588;-75
2021/10/26 11:12:45;;;;;;;7.67;5.00;;;9.80;99.90;10.00;97364.00;;;;5069183;28;20223;-74
2021/10/26 11:15:44;;;;;;;7.93;4.53;;;9.90;99.90;10.20;97355.00;;;;5078566;28;20203;-74
2021/10/26 11:18:44;;;;;;;11.47;5.10;;;10.00;99.90;10.30;97365.00;;;;5075838;28;20214;-74
2021/10/26 11:21:36;;;;;;;5.60;4.43;;;10.10;99.90;10.30;97356.00;;;;5073199;28;20570;-74
2021/10/26 11:24:25;;;;;;;6.77;4.57;;;10.20;99.90;10.50;97344.00;;;;5066898;28;20215;-74
2021/10/26 11:27:34;;;;;;;5.33;4.50;;;10.30;99.90;10.60;97345.00;;;;5067124;28;20200;-75
2021/10/26 11:30:55;;;;;;;9.97;4.10;;;10.40;99.90;10.70;97360.00;;;;5082129;28;20204;-75
2021/10/26 11:33:58;;;;;;;8.07;4.27;;;10.50;99.90;11.00;97377.00;;;;5004335;28;20312;-73
2021/10/26 11:36:58;;;;;;;5.47;4.37;;;10.60;99.90;11.30;97377.00;;;;5081121;28;20203;-73
2021/10/26 11:39:47;;;;;;;6.23;4.50;;;10.80;99.90;11.40;97369.00;;;;5086547;28;20207;-73
2021/10/26 11:42:37;;;;;;;4.83;4.10;;;11.00;99.90;11.60;97360.00;;;;5095750;28;20210;-72
2021/10/26 11:45:27;;;;;;;10.10;6.07;;;11.20;99.90;11.70;97343.00;;;;5094942;28;20215;-72
2021/10/26 11:48:58;;;;;;;7.93;4.83;;;11.30;99.90;11.60;97339.00;;;;5083869;28;20208;-72
2021/10/26 11:51:51;;;;;;;7.23;4.53;;;11.40;99.90;11.80;97326.00;;;;5067987;28;20220;-72
2021/10/26 11:54:50;;;;;;;7.17;4.87;;;11.50;99.90;11.60;97323.00;;;;5080543;28;20202;-72
2021/10/26 11:57:39;;;;;;;7.40;4.33;;;11.60;99.90;12.30;97321.00;;;;5073539;28;20219;-72
2021/10/26 12:00:28;;;;;;;7.30;4.67;;;11.80;99.90;12.70;97330.00;;;;5083805;28;20207;-73
2021/10/26 12:03:18;;;;;;;7.47;5.00;;;12.10;99.90;13.40;97324.00;;;;5076043;28;20195;-74
2021/10/26 12:06:08;;;;;;;7.50;5.00;;;12.50;99.90;14.10;97332.00;;;;5079893;28;20227;-72
2021/10/26 12:09:00;;;;;;;6.93;4.43;;;13.00;99.90;14.30;97323.00;;;;5080128;28;20210;-73
2021/10/26 12:11:52;;;;;;;5.70;4.27;;;13.60;99.90;14.40;97323.00;;;;5066258;28;20689;-72
2021/10/26 12:14:42;;;;;;;5.83;4.30;;;14.00;97.50;15.00;97345.00;;;;5074934;28;20214;-73
2021/10/26 12:17:32;;;;;;;7.70;4.20;;;14.40;95.80;14.20;97352.00;;;;5067987;28;20196;-72
2021/10/26 12:20:23;;;;;;;6.73;3.70;;;14.60;92.50;14.00;97344.00;;;;5080642;28;20199;-72
2021/10/26 12:23:14;;;;;;;4.77;3.67;;;14.50;90.90;13.70;97338.00;;;;5077571;28;21240;-72
2021/10/26 12:26:11;;;;;;;6.00;4.03;;;14.30;89.70;13.40;97322.00;;;;5078410;28;20361;-71
2021/10/26 12:28:59;;;;;;;6.77;4.23;;;14.00;90.00;13.30;97328.00;;;;5079642;28;20208;-71
2021/10/26 12:31:48;;;;;;;6.73;4.10;;;13.80;90.60;12.90;97314.00;;;;5080048;28;20284;-72
2021/10/26 12:34:41;;;;;;;5.57;3.77;;;13.50;90.50;12.60;97319.00;;;;5066454;28;20478;-71
2021/10/26 12:37:32;;;;;;;7.20;3.93;;;13.20;90.20;12.50;97316.00;;;;5073780;28;20203;-72
2021/10/26 12:40:24;;;;;;;5.13;3.90;;;13.00;89.80;12.80;97313.00;;;;5068279;28;20212;-72
2021/10/26 12:43:28;;;;;;;4.07;3.50;;;12.90;90.00;13.60;97314.00;;;;5074345;28;20247;-72
2021/10/26 12:46:41;;;;;;;6.20;3.83;;;13.10;91.20;14.10;97327.00;;;;5061064;28;20206;-71
2021/10/26 12:49:36;;;;;;;3.70;3.40;;;13.30;91.10;13.80;97324.00;;;;5077497;28;20806;-71
2021/10/26 12:52:25;;;;;;;5.17;3.47;;;13.50;90.80;13.70;97321.00;;;;5078250;28;20222;-72
2021/10/26 12:55:15;;;;;;;7.03;4.43;;;13.60;90.60;13.60;97325.00;;;;5094369;28;20202;-71
2021/10/26 12:58:06;;;;;;;4.63;3.40;;;13.60;89.70;13.80;97323.00;;;;5085236;28;20201;-71